createdAt,value
2019-01-17T00:00:43.100Z,66.96
2019-01-17T00:03:32.629Z,66.89
2019-01-17T00:06:20.968Z,67.03
2019-01-17T00:09:09.275Z,66.95
2019-01-17T00:12:00.521Z,66.78
2019-01-17T00:15:06.785Z,67.52
2019-01-17T00:17:54.191Z,66.35
2019-01-17T00:20:54.426Z,66.42
2019-01-17T00:23:51.978Z,66.07
2019-01-17T00:26:33.649Z,66.64
2019-01-17T00:29:21.977Z,66.00
2019-01-17T00:32:19.002Z,66.26
2019-01-17T00:35:16.508Z,65.97
2019-01-17T00:38:03.653Z,65.65
2019-01-17T00:41:01.115Z,65.89
2019-01-17T00:43:55.550Z,65.61
2019-01-17T00:46:50.316Z,66.28
2019-01-17T00:49:37.334Z,66.56
2019-01-17T00:52:37.812Z,66.34
2019-01-17T00:55:44.764Z,66.28
2019-01-17T00:58:48.069Z,66.26
2019-01-17T01:01:45.000Z,65.76
2019-01-17T01:04:36.354Z,65.65
2019-01-17T01:07:23.583Z,65.99
2019-01-17T01:10:23.993Z,66.24
2019-01-17T01:13:10.807Z,66.04
2019-01-17T01:16:13.052Z,65.45
2019-01-17T01:18:51.727Z,65.73
2019-01-17T01:21:38.731Z,65.93
2019-01-17T01:24:33.090Z,65.79
2019-01-17T01:27:21.391Z,65.71
2019-01-17T01:30:13.181Z,65.38
2019-01-17T01:33:07.668Z,65.69
2019-01-17T01:35:54.484Z,65.95
2019-01-17T01:38:51.799Z,65.65
2019-01-17T01:41:42.888Z,65.47
2019-01-17T01:44:29.608Z,65.58
2019-01-17T01:47:33.170Z,65.45
2019-01-17T01:50:30.352Z,65.14
2019-01-17T01:53:07.760Z,65.17
2019-01-17T01:55:38.991Z,65.49
2019-01-17T01:58:08.388Z,65.49
2019-01-17T02:00:37.749Z,65.30
2019-01-17T02:03:07.105Z,65.45
2019-01-17T02:05:36.491Z,65.46
2019-01-17T02:08:06.093Z,65.73
2019-01-17T02:10:35.669Z,65.45
2019-01-17T02:13:05.134Z,65.56
2019-01-17T02:15:34.573Z,65.08
2019-01-17T02:18:04.166Z,65.13
2019-01-17T02:20:33.710Z,65.26
2019-01-17T02:23:03.104Z,65.14
2019-01-17T02:25:32.540Z,65.73
2019-01-17T02:28:01.897Z,65.20
2019-01-17T02:30:31.356Z,65.10
2019-01-17T02:33:00.706Z,65.20
2019-01-17T02:35:30.081Z,64.82
2019-01-17T02:37:59.433Z,64.45
2019-01-17T02:40:28.801Z,64.34
2019-01-17T02:42:58.177Z,64.12
2019-01-17T02:45:27.542Z,64.44
2019-01-17T02:47:56.910Z,63.89
2019-01-17T02:50:26.292Z,63.67
2019-01-17T02:52:55.646Z,64.00
2019-01-17T02:55:25.156Z,64.14
2019-01-17T02:57:54.501Z,64.41
2019-01-17T03:00:23.961Z,63.77
2019-01-17T03:02:53.317Z,64.33
2019-01-17T03:05:22.685Z,63.89
2019-01-17T03:07:52.089Z,64.09
2019-01-17T03:10:21.525Z,64.15
2019-01-17T03:12:50.927Z,63.91
2019-01-17T03:15:20.291Z,63.78
2019-01-17T03:17:49.650Z,63.57
2019-01-17T03:20:19.029Z,63.42
2019-01-17T03:22:48.385Z,65.30
2019-01-17T03:25:17.760Z,63.41
2019-01-17T03:27:47.121Z,63.57
2019-01-17T03:30:18.269Z,64.10
2019-01-17T03:32:47.629Z,63.58
2019-01-17T03:35:16.997Z,63.97
2019-01-17T03:37:46.372Z,63.79
2019-01-17T03:40:17.381Z,63.96
2019-01-17T03:42:46.738Z,63.87
2019-01-17T03:45:16.471Z,64.09
2019-01-17T03:47:45.816Z,64.91
2019-01-17T03:50:15.991Z,63.85
2019-01-17T03:52:45.393Z,63.59
2019-01-17T03:55:17.694Z,64.29
2019-01-17T03:57:47.080Z,63.87
2019-01-17T04:00:18.971Z,63.52
2019-01-17T04:02:48.325Z,63.65
2019-01-17T04:05:17.714Z,63.98
2019-01-17T04:07:47.080Z,64.10
2019-01-17T04:10:16.894Z,64.37
2019-01-17T04:12:46.254Z,64.27
2019-01-17T04:15:15.630Z,64.90
2019-01-17T04:17:45.010Z,64.87
2019-01-17T04:20:16.088Z,65.07
2019-01-17T04:22:45.810Z,65.64
2019-01-17T04:25:15.171Z,66.17
2019-01-17T04:27:44.523Z,65.65
2019-01-17T04:30:18.389Z,65.81
2019-01-17T04:32:47.755Z,65.53
2019-01-17T04:35:17.133Z,65.87
2019-01-17T04:37:46.481Z,65.87
2019-01-17T04:40:15.836Z,65.61
2019-01-17T04:42:45.212Z,65.69
2019-01-17T04:45:15.332Z,65.52
2019-01-17T04:47:44.718Z,65.55
2019-01-17T04:50:14.784Z,65.73
2019-01-17T04:52:44.273Z,65.44
2019-01-17T04:55:14.105Z,65.32
2019-01-17T04:57:43.472Z,65.15
2019-01-17T05:00:18.326Z,65.17
2019-01-17T05:02:47.775Z,65.02
2019-01-17T05:05:17.128Z,65.36
2019-01-17T05:07:46.735Z,66.02
2019-01-17T05:10:16.645Z,65.20
2019-01-17T05:12:46.025Z,64.52
2019-01-17T05:15:15.398Z,65.11
2019-01-17T05:17:44.753Z,64.84
2019-01-17T05:20:15.867Z,64.99
2019-01-17T05:22:45.205Z,65.18
2019-01-17T05:25:15.706Z,65.46
2019-01-17T05:27:45.043Z,65.43
2019-01-17T05:30:16.571Z,65.57
2019-01-17T05:32:46.328Z,65.43
2019-01-17T05:35:15.795Z,64.88
2019-01-17T05:37:45.146Z,65.75
2019-01-17T05:40:16.870Z,65.33
2019-01-17T05:42:46.235Z,65.64
2019-01-17T05:45:16.879Z,65.15
2019-01-17T05:47:46.265Z,65.29
2019-01-17T05:50:16.701Z,65.50
2019-01-17T05:52:46.078Z,65.37
2019-01-17T05:55:19.692Z,65.17
2019-01-17T05:57:46.580Z,64.91
2019-01-17T06:00:18.472Z,65.08
2019-01-17T06:02:47.823Z,65.40
2019-01-17T06:05:17.932Z,65.49
2019-01-17T06:07:47.297Z,65.44
2019-01-17T06:10:16.761Z,65.33
2019-01-17T06:12:46.108Z,64.93
2019-01-17T06:15:17.538Z,65.37
2019-01-17T06:17:46.965Z,65.28
2019-01-17T06:20:16.560Z,65.70
2019-01-17T06:22:45.906Z,65.73
2019-01-17T06:25:15.302Z,65.77
2019-01-17T06:27:44.659Z,65.92
2019-01-17T06:30:14.547Z,65.93
2019-01-17T06:32:43.914Z,65.81
2019-01-17T06:35:13.501Z,65.69
2019-01-17T06:37:42.862Z,65.69
2019-01-17T06:40:21.636Z,66.35
2019-01-17T06:42:51.008Z,66.92
2019-01-17T06:45:20.373Z,66.79
2019-01-17T06:47:49.761Z,67.09
2019-01-17T06:50:19.121Z,67.11
2019-01-17T06:52:48.503Z,67.25
2019-01-17T06:55:17.957Z,67.32
2019-01-17T06:57:47.360Z,67.20
2019-01-17T07:00:17.520Z,67.13
2019-01-17T07:02:47.493Z,67.06
2019-01-17T07:05:17.043Z,67.54
2019-01-17T07:07:46.410Z,67.28
2019-01-17T07:10:16.851Z,67.15
2019-01-17T07:12:46.367Z,67.68
2019-01-17T07:15:15.803Z,67.96
2019-01-17T07:17:45.120Z,67.52
2019-01-17T07:20:15.928Z,67.37
2019-01-17T07:22:45.276Z,67.50
2019-01-17T07:25:14.694Z,67.50
2019-01-17T07:27:44.407Z,67.63
2019-01-17T07:30:17.052Z,67.43
2019-01-17T07:32:46.517Z,67.68
2019-01-17T07:35:16.101Z,68.02
2019-01-17T07:37:45.586Z,67.98
2019-01-17T07:40:15.852Z,67.76
2019-01-17T07:42:45.366Z,67.82
2019-01-17T07:45:17.488Z,67.78
2019-01-17T07:47:46.886Z,68.40
2019-01-17T07:50:16.240Z,68.33
2019-01-17T07:52:45.691Z,67.98
2019-01-17T07:55:15.200Z,67.85
2019-01-17T07:57:44.587Z,67.87
2019-01-17T08:00:16.660Z,67.55
2019-01-17T08:02:46.037Z,67.63
2019-01-17T08:05:15.535Z,68.35
2019-01-17T08:07:44.918Z,68.49
2019-01-17T08:10:16.114Z,67.72
2019-01-17T08:12:45.880Z,67.75
2019-01-17T08:15:15.696Z,68.21
2019-01-17T08:17:45.090Z,68.71
2019-01-17T08:20:18.495Z,68.59
2019-01-17T08:22:48.289Z,69.43
2019-01-17T08:25:17.762Z,69.37
2019-01-17T08:27:47.170Z,69.52
2019-01-17T08:30:18.637Z,69.45
2019-01-17T08:32:48.001Z,69.84
2019-01-17T08:35:18.107Z,69.88
2019-01-17T08:37:47.476Z,69.98
2019-01-17T08:40:20.459Z,70.23
2019-01-17T08:42:49.961Z,70.30
2019-01-17T08:45:19.453Z,70.52
2019-01-17T08:47:48.805Z,70.83
2019-01-17T08:50:18.393Z,70.79
2019-01-17T08:52:47.781Z,71.10
2019-01-17T08:55:17.142Z,71.33
2019-01-17T08:57:46.519Z,71.79
2019-01-17T09:00:18.017Z,71.62
2019-01-17T09:02:47.508Z,71.07
2019-01-17T09:05:16.870Z,71.22
2019-01-17T09:07:46.357Z,70.88
2019-01-17T09:10:18.386Z,71.14
2019-01-17T09:12:47.764Z,70.60
2019-01-17T09:15:18.582Z,70.73
2019-01-17T09:17:47.972Z,70.69
2019-01-17T09:20:17.881Z,70.12
2019-01-17T09:22:47.455Z,70.52
2019-01-17T09:25:16.990Z,70.13
2019-01-17T09:27:46.471Z,69.73
2019-01-17T09:30:17.521Z,69.51
2019-01-17T09:32:46.874Z,69.45
2019-01-17T09:35:16.734Z,69.36
2019-01-17T09:37:46.198Z,69.20
2019-01-17T09:40:17.454Z,69.68
2019-01-17T09:42:46.828Z,69.88
2019-01-17T09:45:16.261Z,69.36
2019-01-17T09:47:45.613Z,69.47
2019-01-17T09:50:25.558Z,69.66
2019-01-17T09:52:55.134Z,69.98
2019-01-17T09:55:24.494Z,69.89
2019-01-17T09:57:53.903Z,69.81
2019-01-17T10:00:30.911Z,70.05
2019-01-17T10:03:00.370Z,69.94
2019-01-17T10:05:30.501Z,70.16
2019-01-17T10:07:59.893Z,70.42
2019-01-17T10:10:29.258Z,70.21
2019-01-17T10:12:59.441Z,70.25
2019-01-17T10:16:02.067Z,70.32
2019-01-17T10:19:08.602Z,70.26
2019-01-17T10:22:10.626Z,69.76
2019-01-17T10:25:15.546Z,69.76
2019-01-17T10:28:28.939Z,69.89
2019-01-17T10:31:12.558Z,69.82
2019-01-17T10:34:14.765Z,69.75
2019-01-17T10:37:22.243Z,70.60
2019-01-17T10:40:26.710Z,70.48
2019-01-17T10:43:09.579Z,70.08
2019-01-17T10:46:10.033Z,71.08
2019-01-17T10:49:26.683Z,71.53
2019-01-17T10:52:45.843Z,71.72
2019-01-17T10:56:07.906Z,72.50
2019-01-17T10:59:13.971Z,72.90
2019-01-17T11:02:18.701Z,72.86
2019-01-17T11:05:24.226Z,73.43
2019-01-17T11:08:39.498Z,73.69
2019-01-17T11:11:28.139Z,73.57
2019-01-17T11:14:21.459Z,73.47
2019-01-17T11:17:13.542Z,73.52
2019-01-17T11:20:27.088Z,73.41
2019-01-17T11:23:32.127Z,73.82
2019-01-17T11:26:36.623Z,73.77
2019-01-17T11:29:40.409Z,74.30
2019-01-17T11:32:35.251Z,74.52
2019-01-17T11:35:57.209Z,73.34
2019-01-17T11:38:45.473Z,74.31
2019-01-17T11:41:34.891Z,74.17
2019-01-17T11:44:50.901Z,73.78
2019-01-17T11:47:52.765Z,73.88
2019-01-17T11:50:57.751Z,73.69
2019-01-17T11:54:02.401Z,74.06
2019-01-17T11:57:18.678Z,74.13
2019-01-17T12:00:18.863Z,74.86
2019-01-17T12:03:11.858Z,74.64
2019-01-17T12:05:41.236Z,73.69
2019-01-17T12:08:10.660Z,74.57
2019-01-17T12:10:40.016Z,74.01
2019-01-17T12:13:09.381Z,74.18
2019-01-17T12:15:38.755Z,74.28
2019-01-17T12:18:08.189Z,73.49
2019-01-17T12:20:37.572Z,73.65
2019-01-17T12:23:06.918Z,74.06
2019-01-17T12:25:36.316Z,74.29
2019-01-17T12:28:05.661Z,74.11
2019-01-17T12:30:35.077Z,74.30
2019-01-17T12:33:04.421Z,74.33
2019-01-17T12:35:34.229Z,74.38
2019-01-17T12:38:03.635Z,74.72
2019-01-17T12:40:33.004Z,74.97
2019-01-17T12:43:04.629Z,74.53
2019-01-17T12:45:34.064Z,74.04
2019-01-17T12:48:03.440Z,74.44
2019-01-17T12:50:32.809Z,74.33
2019-01-17T12:53:02.196Z,73.48
2019-01-17T12:55:31.657Z,73.20
2019-01-17T12:58:01.028Z,73.34
2019-01-17T13:00:30.436Z,73.72
2019-01-17T13:02:59.799Z,72.93
2019-01-17T13:05:29.170Z,72.96
2019-01-17T13:07:58.522Z,73.02
2019-01-17T13:10:27.986Z,73.59
2019-01-17T13:12:57.367Z,73.15
2019-01-17T13:15:26.716Z,73.38
2019-01-17T13:17:56.101Z,72.87
2019-01-17T13:20:25.434Z,72.38
2019-01-17T13:22:54.805Z,72.11
2019-01-17T13:25:25.805Z,71.51
2019-01-17T13:27:55.179Z,71.80
2019-01-17T13:30:24.958Z,71.43
2019-01-17T13:32:54.341Z,71.13
2019-01-17T13:35:23.685Z,70.99
2019-01-17T13:37:53.140Z,71.17
2019-01-17T13:40:23.033Z,70.58
2019-01-17T13:42:52.380Z,70.73
2019-01-17T13:45:22.148Z,70.45
2019-01-17T13:47:51.509Z,70.44
2019-01-17T13:50:20.996Z,69.86
2019-01-17T13:52:50.349Z,69.93
2019-01-17T13:55:19.725Z,69.30
2019-01-17T13:57:49.073Z,68.71
2019-01-17T14:00:20.744Z,66.78
2019-01-17T14:02:50.142Z,67.90
2019-01-17T14:05:19.597Z,68.45
2019-01-17T14:07:49.403Z,66.88
2019-01-17T14:10:18.765Z,66.45
2019-01-17T14:12:48.389Z,66.50
2019-01-17T14:15:24.695Z,66.60
2019-01-17T14:17:54.538Z,66.73
2019-01-17T14:20:23.964Z,66.91
2019-01-17T14:22:53.345Z,66.56
2019-01-17T14:25:23.913Z,67.43
2019-01-17T14:27:53.524Z,67.33
2019-01-17T14:30:26.804Z,66.70
2019-01-17T14:32:56.157Z,66.67
2019-01-17T14:35:25.533Z,67.10
2019-01-17T14:37:54.911Z,67.43
2019-01-17T14:40:24.302Z,67.87
2019-01-17T14:42:53.678Z,67.97
2019-01-17T14:45:23.146Z,67.61
2019-01-17T14:47:52.487Z,67.82
2019-01-17T14:50:24.446Z,68.82
2019-01-17T14:52:53.787Z,69.03
2019-01-17T14:55:23.251Z,69.48
2019-01-17T14:57:52.928Z,70.24
2019-01-17T15:00:24.658Z,69.89
2019-01-17T15:02:54.036Z,70.01
2019-01-17T15:05:25.863Z,70.11
2019-01-17T15:07:54.481Z,70.41
2019-01-17T15:10:38.389Z,70.13
2019-01-17T15:13:07.830Z,70.18
2019-01-17T15:15:37.284Z,70.50
2019-01-17T15:18:07.395Z,70.29
2019-01-17T15:20:36.793Z,70.02
2019-01-17T15:23:07.202Z,70.51
2019-01-17T15:25:36.589Z,70.12
2019-01-17T15:28:06.055Z,70.57
2019-01-17T15:30:35.627Z,71.19
2019-01-17T15:33:05.129Z,70.91
2019-01-17T15:35:34.505Z,70.70
2019-01-17T15:38:03.885Z,70.90
2019-01-17T15:40:33.337Z,71.32
2019-01-17T15:43:02.981Z,71.41
2019-01-17T15:45:32.490Z,72.42
2019-01-17T15:48:01.862Z,74.23
2019-01-17T15:50:31.243Z,74.78
2019-01-17T15:53:00.623Z,75.53
2019-01-17T15:55:29.978Z,76.26
2019-01-17T15:57:59.342Z,75.94
2019-01-17T16:00:31.003Z,76.48
2019-01-17T16:03:00.480Z,75.85
2019-01-17T16:05:29.884Z,75.42
2019-01-17T16:07:59.252Z,75.17
2019-01-17T16:10:31.580Z,75.14
2019-01-17T16:13:00.935Z,74.96
2019-01-17T16:15:30.360Z,74.66
2019-01-17T16:17:59.912Z,74.40
2019-01-17T16:20:29.270Z,73.95
2019-01-17T16:22:58.652Z,74.21
2019-01-17T16:25:28.008Z,73.88
2019-01-17T16:27:57.377Z,73.83
2019-01-17T16:30:31.360Z,73.85
2019-01-17T16:33:00.743Z,74.04
2019-01-17T16:35:30.094Z,73.68
2019-01-17T16:37:59.501Z,74.10
2019-01-17T16:40:29.676Z,73.77
2019-01-17T16:42:59.034Z,73.39
2019-01-17T16:45:35.173Z,73.28
2019-01-17T16:47:59.578Z,73.67
2019-01-17T16:50:29.052Z,73.33
2019-01-17T16:52:58.447Z,72.98
2019-01-17T16:55:27.837Z,72.40
2019-01-17T16:57:57.189Z,73.09
2019-01-17T17:00:38.494Z,73.07
2019-01-17T17:03:07.869Z,73.73
2019-01-17T17:05:37.252Z,74.00
2019-01-17T17:08:06.717Z,73.98
2019-01-17T17:10:36.159Z,74.43
2019-01-17T17:13:05.616Z,74.92
2019-01-17T17:15:34.973Z,74.96
2019-01-17T17:18:04.550Z,75.01
2019-01-17T17:20:33.965Z,75.43
2019-01-17T17:23:03.321Z,75.26
2019-01-17T17:25:32.721Z,74.90
2019-01-17T17:28:02.068Z,74.26
2019-01-17T17:30:31.443Z,73.66
2019-01-17T17:33:02.374Z,73.99
2019-01-17T17:35:31.845Z,72.99
2019-01-17T17:38:02.219Z,72.59
2019-01-17T17:40:32.568Z,71.90
2019-01-17T17:43:02.355Z,70.97
2019-01-17T17:45:32.269Z,70.99
2019-01-17T17:48:02.753Z,70.89
2019-01-17T17:50:32.139Z,70.55
2019-01-17T17:53:01.514Z,70.63
2019-01-17T17:55:30.864Z,70.53
2019-01-17T17:58:02.360Z,70.19
2019-01-17T18:00:43.878Z,70.03
2019-01-17T18:03:13.454Z,69.78
2019-01-17T18:05:43.437Z,70.04
2019-01-17T18:08:13.300Z,69.32
2019-01-17T18:10:42.696Z,69.38
2019-01-17T18:13:12.067Z,68.82
2019-01-17T18:15:41.492Z,68.52
2019-01-17T18:18:10.869Z,68.78
2019-01-17T18:20:40.302Z,68.70
2019-01-17T18:23:09.656Z,69.51
2019-01-17T18:25:39.410Z,71.34
2019-01-17T18:28:09.071Z,71.09
2019-01-17T18:30:38.414Z,73.66
2019-01-17T18:33:07.820Z,78.96
2019-01-17T18:35:37.201Z,81.77
2019-01-17T18:38:06.598Z,83.15
2019-01-17T18:40:36.052Z,84.24
2019-01-17T18:43:05.552Z,85.11
2019-01-17T18:45:34.927Z,84.65
2019-01-17T18:48:04.924Z,84.25
2019-01-17T18:50:34.767Z,84.78
2019-01-17T18:53:04.566Z,84.57
2019-01-17T18:55:34.044Z,83.96
2019-01-17T18:58:03.403Z,84.44
2019-01-17T19:00:33.024Z,84.37
2019-01-17T19:03:02.497Z,84.19
2019-01-17T19:05:32.116Z,83.87
2019-01-17T19:08:01.483Z,83.19
2019-01-17T19:10:31.054Z,83.94
2019-01-17T19:13:00.429Z,84.83
2019-01-17T19:15:32.086Z,84.84
2019-01-17T19:18:01.744Z,85.33
2019-01-17T19:20:31.117Z,83.79
2019-01-17T19:23:00.747Z,83.50
2019-01-17T19:25:30.314Z,83.44
2019-01-17T19:27:59.827Z,83.30
2019-01-17T19:30:30.656Z,82.89
2019-01-17T19:33:00.232Z,83.69
2019-01-17T19:35:29.708Z,83.31
2019-01-17T19:37:59.167Z,83.86
2019-01-17T19:40:29.632Z,83.32
2019-01-17T19:42:59.179Z,83.44
2019-01-17T19:45:28.678Z,83.37
2019-01-17T19:47:58.125Z,82.54
2019-01-17T19:50:30.109Z,82.91
2019-01-17T19:52:59.667Z,83.22
2019-01-17T19:55:29.242Z,82.04
2019-01-17T19:57:58.701Z,81.91
2019-01-17T20:00:28.140Z,82.17
2019-01-17T20:02:57.634Z,82.15
2019-01-17T20:05:28.188Z,82.73
2019-01-17T20:07:57.766Z,82.28
2019-01-17T20:10:32.008Z,81.84
2019-01-17T20:13:01.572Z,81.96
2019-01-17T20:15:31.023Z,81.96
2019-01-17T20:18:00.510Z,81.86
2019-01-17T20:20:32.017Z,82.37
2019-01-17T20:23:01.151Z,83.75
2019-01-17T20:25:30.631Z,83.84
2019-01-17T20:28:00.072Z,83.77
2019-01-17T20:30:31.951Z,83.39
2019-01-17T20:33:02.716Z,82.74
2019-01-17T20:35:32.232Z,82.42
2019-01-17T20:38:01.693Z,82.24
2019-01-17T20:40:31.169Z,82.41
2019-01-17T20:43:00.647Z,83.52
2019-01-17T20:45:30.093Z,83.35
2019-01-17T20:47:59.577Z,83.69
2019-01-17T20:50:31.187Z,83.66
2019-01-17T20:53:00.749Z,83.45
2019-01-17T20:55:30.416Z,82.56
2019-01-17T20:57:59.860Z,82.32
2019-01-17T21:01:24.724Z,82.01
2019-01-17T21:03:54.197Z,83.49
2019-01-17T21:06:23.827Z,84.18
2019-01-17T21:08:53.296Z,84.14
2019-01-17T21:11:22.827Z,84.10
2019-01-17T21:13:52.455Z,83.81
2019-01-17T21:16:21.984Z,84.35
2019-01-17T21:18:51.497Z,83.53
2019-01-17T21:21:21.040Z,83.74
2019-01-17T21:23:50.475Z,84.18
2019-01-17T21:26:19.941Z,83.60
2019-01-17T21:28:49.623Z,83.99
2019-01-17T21:31:19.115Z,83.43
2019-01-17T21:33:48.612Z,84.22
2019-01-17T21:36:18.233Z,82.90
2019-01-17T21:38:47.852Z,82.47
2019-01-17T21:41:17.292Z,82.29
2019-01-17T21:43:46.748Z,83.20
2019-01-17T21:46:16.176Z,82.28
2019-01-17T21:48:45.631Z,82.21
2019-01-17T21:51:15.068Z,82.48
2019-01-17T21:53:45.711Z,82.44
2019-01-17T21:56:15.148Z,81.61
2019-01-17T21:58:44.618Z,81.61
2019-01-17T22:01:14.051Z,80.79
2019-01-17T22:03:43.513Z,80.89
2019-01-17T22:06:13.107Z,81.18
2019-01-17T22:08:47.744Z,80.54
2019-01-17T22:11:17.253Z,80.26
2019-01-17T22:13:46.772Z,79.89
2019-01-17T22:16:16.213Z,79.73
2019-01-17T22:18:45.676Z,80.41
2019-01-17T22:21:15.140Z,79.84
2019-01-17T22:23:44.593Z,79.01
2019-01-17T22:26:14.047Z,79.12
2019-01-17T22:28:43.511Z,79.29
2019-01-17T22:31:13.064Z,78.88
2019-01-17T22:33:42.500Z,80.67
2019-01-17T22:36:11.981Z,78.90
2019-01-17T22:38:41.432Z,79.32
2019-01-17T22:41:10.868Z,78.78
2019-01-17T22:43:40.324Z,78.49
2019-01-17T22:46:09.760Z,78.70
2019-01-17T22:48:39.232Z,78.57
2019-01-17T22:51:09.376Z,79.28
2019-01-17T22:53:38.845Z,77.89
2019-01-17T22:56:08.284Z,77.94
2019-01-17T22:58:37.712Z,77.46
2019-01-17T23:01:22.493Z,77.65
2019-01-17T23:03:52.829Z,79.18
2019-01-17T23:06:22.285Z,78.37
2019-01-17T23:08:51.756Z,77.83
2019-01-17T23:11:21.544Z,77.48
2019-01-17T23:13:50.986Z,77.20
2019-01-17T23:16:20.425Z,78.23
2019-01-17T23:18:49.884Z,76.35
2019-01-17T23:21:19.322Z,76.44
2019-01-17T23:23:48.790Z,76.02
2019-01-17T23:26:18.208Z,76.63
2019-01-17T23:28:47.665Z,77.50
2019-01-17T23:31:17.111Z,76.32
2019-01-17T23:33:46.544Z,75.95
2019-01-17T23:36:16.016Z,75.54
2019-01-17T23:38:45.447Z,75.12
2019-01-17T23:41:14.909Z,75.06
2019-01-17T23:43:44.340Z,75.62
2019-01-17T23:46:13.792Z,75.42
2019-01-17T23:48:43.227Z,75.49
2019-01-17T23:51:12.665Z,75.93
2019-01-17T23:53:42.132Z,75.90
2019-01-17T23:56:11.568Z,75.25
2019-01-17T23:58:41.035Z,75.50
